sensor_id;sensor_type;location;lat;lon;timestamp;temperature;humidity
32536;DHT22;18974;50.838;4.636;2022-12-29T00:02:03;12.10;99.90
32536;DHT22;18974;50.838;4.636;2022-12-29T00:04:28;12.20;99.90
32536;DHT22;18974;50.838;4.636;2022-12-29T00:06:54;12.10;99.90
32536;DHT22;18974;50.838;4.636;2022-12-29T00:09:19;12.10;99.90
32536;DHT22;18974;50.838;4.636;2022-12-29T00:11:45;12.20;99.90
32536;DHT22;18974;50.838;4.636;2022-12-29T00:14:12;12.10;99.90
32536;DHT22;18974;50.838;4.636;2022-12-29T00:16:57;12.10;99.90
32536;DHT22;18974;50.838;4.636;2022-12-29T00:19:23;12.10;99.90
32536;DHT22;18974;50.838;4.636;2022-12-29T00:22:12;12.10;99.90
32536;DHT22;18974;50.838;4.636;2022-12-29T00:24:56;12.20;99.90
32536;DHT22;18974;50.838;4.636;2022-12-29T00:27:26;12.20;99.90
32536;DHT22;18974;50.838;4.636;2022-12-29T00:30:12;12.10;99.90
32536;DHT22;18974;50.838;4.636;2022-12-29T00:32:56;12.10;99.90
32536;DHT22;18974;50.838;4.636;2022-12-29T00:35:52;12.10;99.90
32536;DHT22;18974;50.838;4.636;2022-12-29T00:38:19;12.10;99.90
32536;DHT22;18974;50.838;4.636;2022-12-29T00:41:05;12.10;99.90
32536;DHT22;18974;50.838;4.636;2022-12-29T00:43:49;12.10;99.90
32536;DHT22;18974;50.838;4.636;2022-12-29T00:46:40;12.20;99.90
32536;DHT22;18974;50.838;4.636;2022-12-29T00:49:08;12.10;99.90
32536;DHT22;18974;50.838;4.636;2022-12-29T00:51:53;12.10;99.90
32536;DHT22;18974;50.838;4.636;2022-12-29T00:54:19;12.20;99.90
32536;DHT22;18974;50.838;4.636;2022-12-29T00:56:47;12.20;99.90
32536;DHT22;18974;50.838;4.636;2022-12-29T00:59:13;12.10;99.90
32536;DHT22;18974;50.838;4.636;2022-12-29T01:01:39;12.10;99.90
32536;DHT22;18974;50.838;4.636;2022-12-29T01:04:05;12.20;99.90
32536;DHT22;18974;50.838;4.636;2022-12-29T01:06:31;12.20;99.90
32536;DHT22;18974;50.838;4.636;2022-12-29T01:08:57;12.20;99.90
32536;DHT22;18974;50.838;4.636;2022-12-29T01:11:41;12.20;99.90
32536;DHT22;18974;50.838;4.636;2022-12-29T01:14:07;12.20;99.90
32536;DHT22;18974;50.838;4.636;2022-12-29T01:16:33;12.30;99.90
32536;DHT22;18974;50.838;4.636;2022-12-29T01:18:59;12.20;99.90
32536;DHT22;18974;50.838;4.636;2022-12-29T01:21:25;12.20;99.90
32536;DHT22;18974;50.838;4.636;2022-12-29T01:23:51;12.10;99.90
32536;DHT22;18974;50.838;4.636;2022-12-29T01:26:17;12.10;99.90
32536;DHT22;18974;50.838;4.636;2022-12-29T01:28:43;12.10;99.90
32536;DHT22;18974;50.838;4.636;2022-12-29T01:31:13;12.00;99.90
32536;DHT22;18974;50.838;4.636;2022-12-29T01:33:39;12.00;99.90
32536;DHT22;18974;50.838;4.636;2022-12-29T01:36:07;11.90;99.90
32536;DHT22;18974;50.838;4.636;2022-12-29T01:38:35;11.90;99.90
32536;DHT22;18974;50.838;4.636;2022-12-29T01:41:02;11.80;99.90
32536;DHT22;18974;50.838;4.636;2022-12-29T01:43:48;11.70;99.90
32536;DHT22;18974;50.838;4.636;2022-12-29T01:48:59;11.70;99.90
32536;DHT22;18974;50.838;4.636;2022-12-29T01:51:28;11.60;99.90
32536;DHT22;18974;50.838;4.636;2022-12-29T01:53:58;11.60;99.90
32536;DHT22;18974;50.838;4.636;2022-12-29T01:56:27;11.50;99.90
32536;DHT22;18974;50.838;4.636;2022-12-29T01:59:03;11.50;99.90
32536;DHT22;18974;50.838;4.636;2022-12-29T02:01:30;11.50;99.90
32536;DHT22;18974;50.838;4.636;2022-12-29T02:03:56;11.20;99.90
32536;DHT22;18974;50.838;4.636;2022-12-29T02:06:26;11.10;99.90
32536;DHT22;18974;50.838;4.636;2022-12-29T02:08:55;11.00;99.90
32536;DHT22;18974;50.838;4.636;2022-12-29T02:11:23;11.00;99.90
32536;DHT22;18974;50.838;4.636;2022-12-29T02:13:49;11.00;99.90
32536;DHT22;18974;50.838;4.636;2022-12-29T02:16:33;11.10;99.90
32536;DHT22;18974;50.838;4.636;2022-12-29T02:19:27;11.10;99.90
32536;DHT22;18974;50.838;4.636;2022-12-29T02:22:18;11.10;99.90
32536;DHT22;18974;50.838;4.636;2022-12-29T02:27:31;11.00;99.90
32536;DHT22;18974;50.838;4.636;2022-12-29T02:40:53;11.10;99.90
32536;DHT22;18974;50.838;4.636;2022-12-29T02:43:30;11.10;99.90
32536;DHT22;18974;50.838;4.636;2022-12-29T02:52:01;11.20;99.90
32536;DHT22;18974;50.838;4.636;2022-12-29T02:54:28;11.20;99.90
32536;DHT22;18974;50.838;4.636;2022-12-29T02:57:15;11.10;99.90
32536;DHT22;18974;50.838;4.636;2022-12-29T02:59:42;11.20;99.90
32536;DHT22;18974;50.838;4.636;2022-12-29T03:05:10;11.20;99.90
32536;DHT22;18974;50.838;4.636;2022-12-29T03:16:00;10.40;99.90
32536;DHT22;18974;50.838;4.636;2022-12-29T03:18:35;10.20;99.90
32536;DHT22;18974;50.838;4.636;2022-12-29T03:21:10;10.20;99.90
32536;DHT22;18974;50.838;4.636;2022-12-29T03:23:37;10.20;99.90
32536;DHT22;18974;50.838;4.636;2022-12-29T03:26:09;10.20;99.90
32536;DHT22;18974;50.838;4.636;2022-12-29T03:28:39;10.30;99.90
32536;DHT22;18974;50.838;4.636;2022-12-29T03:31:08;10.30;99.90
32536;DHT22;18974;50.838;4.636;2022-12-29T03:33:34;10.20;99.90
32536;DHT22;18974;50.838;4.636;2022-12-29T03:36:08;10.30;99.90
32536;DHT22;18974;50.838;4.636;2022-12-29T03:38:42;10.30;99.90
32536;DHT22;18974;50.838;4.636;2022-12-29T03:41:12;10.40;99.90
32536;DHT22;18974;50.838;4.636;2022-12-29T03:43:39;10.40;99.90
32536;DHT22;18974;50.838;4.636;2022-12-29T03:46:05;10.40;99.90
32536;DHT22;18974;50.838;4.636;2022-12-29T03:48:31;10.50;99.90
32536;DHT22;18974;50.838;4.636;2022-12-29T03:50:58;10.50;99.90
32536;DHT22;18974;50.838;4.636;2022-12-29T03:53:24;10.50;99.90
32536;DHT22;18974;50.838;4.636;2022-12-29T03:55:49;10.50;99.90
32536;DHT22;18974;50.838;4.636;2022-12-29T03:58:15;10.40;99.90
32536;DHT22;18974;50.838;4.636;2022-12-29T04:00:41;10.50;99.90
32536;DHT22;18974;50.838;4.636;2022-12-29T04:03:06;10.50;99.90
32536;DHT22;18974;50.838;4.636;2022-12-29T04:05:32;10.40;99.90
32536;DHT22;18974;50.838;4.636;2022-12-29T04:07:58;10.30;99.90
32536;DHT22;18974;50.838;4.636;2022-12-29T04:10:23;10.30;99.90
32536;DHT22;18974;50.838;4.636;2022-12-29T04:12:49;10.30;99.90
32536;DHT22;18974;50.838;4.636;2022-12-29T04:15:15;10.20;99.90
32536;DHT22;18974;50.838;4.636;2022-12-29T04:17:41;10.10;99.90
32536;DHT22;18974;50.838;4.636;2022-12-29T04:20:07;10.10;99.90
32536;DHT22;18974;50.838;4.636;2022-12-29T04:23:04;10.10;99.90
32536;DHT22;18974;50.838;4.636;2022-12-29T04:25:31;10.10;99.90
32536;DHT22;18974;50.838;4.636;2022-12-29T04:27:57;10.20;99.90
32536;DHT22;18974;50.838;4.636;2022-12-29T04:30:23;10.20;99.90
32536;DHT22;18974;50.838;4.636;2022-12-29T04:32:49;10.20;99.90
32536;DHT22;18974;50.838;4.636;2022-12-29T04:35:15;10.20;99.90
32536;DHT22;18974;50.838;4.636;2022-12-29T04:37:40;10.20;99.90
32536;DHT22;18974;50.838;4.636;2022-12-29T04:40:06;10.30;99.90
32536;DHT22;18974;50.838;4.636;2022-12-29T04:42:32;10.40;99.90
32536;DHT22;18974;50.838;4.636;2022-12-29T04:44:58;10.40;99.90
32536;DHT22;18974;50.838;4.636;2022-12-29T04:47:24;10.40;99.90
32536;DHT22;18974;50.838;4.636;2022-12-29T04:49:49;10.50;99.90
32536;DHT22;18974;50.838;4.636;2022-12-29T04:52:15;10.50;99.90
32536;DHT22;18974;50.838;4.636;2022-12-29T04:54:40;10.60;99.90
32536;DHT22;18974;50.838;4.636;2022-12-29T04:57:06;10.70;99.90
32536;DHT22;18974;50.838;4.636;2022-12-29T04:59:32;10.80;99.90
32536;DHT22;18974;50.838;4.636;2022-12-29T05:01:57;10.70;99.90
32536;DHT22;18974;50.838;4.636;2022-12-29T05:04:23;10.70;99.90
32536;DHT22;18974;50.838;4.636;2022-12-29T05:06:48;10.90;99.90
32536;DHT22;18974;50.838;4.636;2022-12-29T05:09:14;11.00;99.90
32536;DHT22;18974;50.838;4.636;2022-12-29T05:11:40;11.10;99.90
32536;DHT22;18974;50.838;4.636;2022-12-29T05:14:05;11.10;99.90
32536;DHT22;18974;50.838;4.636;2022-12-29T05:16:31;10.90;99.90
32536;DHT22;18974;50.838;4.636;2022-12-29T05:18:56;10.90;99.90
32536;DHT22;18974;50.838;4.636;2022-12-29T05:21:22;11.10;99.90
32536;DHT22;18974;50.838;4.636;2022-12-29T05:23:48;11.10;99.90
32536;DHT22;18974;50.838;4.636;2022-12-29T05:26:13;11.20;99.90
32536;DHT22;18974;50.838;4.636;2022-12-29T05:28:39;11.20;99.90
32536;DHT22;18974;50.838;4.636;2022-12-29T05:31:05;11.10;99.90
32536;DHT22;18974;50.838;4.636;2022-12-29T05:33:30;11.10;99.90
32536;DHT22;18974;50.838;4.636;2022-12-29T05:35:56;11.10;99.90
32536;DHT22;18974;50.838;4.636;2022-12-29T05:38:22;11.00;99.90
32536;DHT22;18974;50.838;4.636;2022-12-29T05:40:47;11.00;99.90
32536;DHT22;18974;50.838;4.636;2022-12-29T05:43:13;11.10;99.90
32536;DHT22;18974;50.838;4.636;2022-12-29T05:45:38;11.10;99.90
32536;DHT22;18974;50.838;4.636;2022-12-29T05:48:04;11.10;99.90
32536;DHT22;18974;50.838;4.636;2022-12-29T05:50:30;11.10;99.90
32536;DHT22;18974;50.838;4.636;2022-12-29T05:52:55;11.20;99.90
32536;DHT22;18974;50.838;4.636;2022-12-29T05:55:21;11.20;99.90
32536;DHT22;18974;50.838;4.636;2022-12-29T05:57:47;11.10;99.90
32536;DHT22;18974;50.838;4.636;2022-12-29T06:00:13;11.10;99.90
32536;DHT22;18974;50.838;4.636;2022-12-29T06:02:39;11.00;99.90
32536;DHT22;18974;50.838;4.636;2022-12-29T06:05:05;11.00;99.90
32536;DHT22;18974;50.838;4.636;2022-12-29T06:07:31;11.10;99.90
32536;DHT22;18974;50.838;4.636;2022-12-29T06:09:56;11.00;99.90
32536;DHT22;18974;50.838;4.636;2022-12-29T06:12:22;11.00;99.90
32536;DHT22;18974;50.838;4.636;2022-12-29T06:14:47;11.10;99.90
32536;DHT22;18974;50.838;4.636;2022-12-29T06:17:13;11.20;99.90
32536;DHT22;18974;50.838;4.636;2022-12-29T06:19:39;11.10;99.90
32536;DHT22;18974;50.838;4.636;2022-12-29T06:22:04;11.10;99.90
32536;DHT22;18974;50.838;4.636;2022-12-29T06:24:30;11.10;99.90
32536;DHT22;18974;50.838;4.636;2022-12-29T06:26:56;10.90;99.90
32536;DHT22;18974;50.838;4.636;2022-12-29T06:29:21;10.90;99.90
32536;DHT22;18974;50.838;4.636;2022-12-29T06:31:47;10.80;99.90
32536;DHT22;18974;50.838;4.636;2022-12-29T06:34:14;10.80;99.90
32536;DHT22;18974;50.838;4.636;2022-12-29T06:36:39;10.80;99.90
32536;DHT22;18974;50.838;4.636;2022-12-29T06:39:05;10.70;99.90
32536;DHT22;18974;50.838;4.636;2022-12-29T06:41:31;10.70;99.90
32536;DHT22;18974;50.838;4.636;2022-12-29T06:43:57;10.70;99.90
32536;DHT22;18974;50.838;4.636;2022-12-29T06:46:23;10.80;99.90
32536;DHT22;18974;50.838;4.636;2022-12-29T06:48:49;10.90;99.90
32536;DHT22;18974;50.838;4.636;2022-12-29T06:51:14;11.00;99.90
32536;DHT22;18974;50.838;4.636;2022-12-29T06:53:40;11.10;99.90
32536;DHT22;18974;50.838;4.636;2022-12-29T06:56:06;11.00;99.90
32536;DHT22;18974;50.838;4.636;2022-12-29T06:58:32;11.00;99.90
32536;DHT22;18974;50.838;4.636;2022-12-29T07:00:58;11.10;99.90
32536;DHT22;18974;50.838;4.636;2022-12-29T07:03:23;11.20;99.90
32536;DHT22;18974;50.838;4.636;2022-12-29T07:05:49;11.30;99.90
32536;DHT22;18974;50.838;4.636;2022-12-29T07:08:15;11.20;99.90
32536;DHT22;18974;50.838;4.636;2022-12-29T07:10:40;11.20;99.90
32536;DHT22;18974;50.838;4.636;2022-12-29T07:13:06;11.20;99.90
32536;DHT22;18974;50.838;4.636;2022-12-29T07:15:33;11.30;99.90
32536;DHT22;18974;50.838;4.636;2022-12-29T07:17:59;11.40;99.90
32536;DHT22;18974;50.838;4.636;2022-12-29T07:20:24;11.30;99.90
32536;DHT22;18974;50.838;4.636;2022-12-29T07:22:50;11.20;99.90
32536;DHT22;18974;50.838;4.636;2022-12-29T07:25:16;11.10;99.90
32536;DHT22;18974;50.838;4.636;2022-12-29T07:27:42;11.10;99.90
32536;DHT22;18974;50.838;4.636;2022-12-29T07:30:08;11.00;99.90
32536;DHT22;18974;50.838;4.636;2022-12-29T07:32:34;11.10;99.90
32536;DHT22;18974;50.838;4.636;2022-12-29T07:35:00;11.20;99.90
32536;DHT22;18974;50.838;4.636;2022-12-29T07:37:26;11.20;99.90
32536;DHT22;18974;50.838;4.636;2022-12-29T07:39:52;11.20;99.90
32536;DHT22;18974;50.838;4.636;2022-12-29T07:42:17;11.20;99.90
32536;DHT22;18974;50.838;4.636;2022-12-29T07:44:43;11.10;99.90
32536;DHT22;18974;50.838;4.636;2022-12-29T07:47:08;11.00;99.90
32536;DHT22;18974;50.838;4.636;2022-12-29T07:49:34;11.00;99.90
32536;DHT22;18974;50.838;4.636;2022-12-29T07:52:00;11.10;99.90
32536;DHT22;18974;50.838;4.636;2022-12-29T07:54:26;11.10;99.90
32536;DHT22;18974;50.838;4.636;2022-12-29T07:56:51;11.20;99.90
32536;DHT22;18974;50.838;4.636;2022-12-29T07:59:17;11.20;99.90
32536;DHT22;18974;50.838;4.636;2022-12-29T08:01:43;11.20;99.90
32536;DHT22;18974;50.838;4.636;2022-12-29T08:04:08;11.10;99.90
32536;DHT22;18974;50.838;4.636;2022-12-29T08:06:34;11.10;99.90
32536;DHT22;18974;50.838;4.636;2022-12-29T08:09:00;11.00;99.90
32536;DHT22;18974;50.838;4.636;2022-12-29T08:11:27;11.10;99.90
32536;DHT22;18974;50.838;4.636;2022-12-29T08:13:53;11.10;99.90
32536;DHT22;18974;50.838;4.636;2022-12-29T08:16:18;11.00;99.90
32536;DHT22;18974;50.838;4.636;2022-12-29T08:18:44;11.00;99.90
32536;DHT22;18974;50.838;4.636;2022-12-29T08:21:10;11.00;99.90
32536;DHT22;18974;50.838;4.636;2022-12-29T08:23:36;11.00;99.90
32536;DHT22;18974;50.838;4.636;2022-12-29T08:26:03;10.90;99.90
32536;DHT22;18974;50.838;4.636;2022-12-29T08:28:30;10.90;99.90
32536;DHT22;18974;50.838;4.636;2022-12-29T08:31:01;10.90;99.90
32536;DHT22;18974;50.838;4.636;2022-12-29T08:33:27;11.00;99.90
32536;DHT22;18974;50.838;4.636;2022-12-29T08:36:02;11.00;99.90
32536;DHT22;18974;50.838;4.636;2022-12-29T08:38:28;10.90;99.90
32536;DHT22;18974;50.838;4.636;2022-12-29T08:40:55;10.90;99.90
32536;DHT22;18974;50.838;4.636;2022-12-29T08:43:21;10.90;99.90
32536;DHT22;18974;50.838;4.636;2022-12-29T08:45:46;11.00;99.90
32536;DHT22;18974;50.838;4.636;2022-12-29T08:48:12;11.00;99.90
32536;DHT22;18974;50.838;4.636;2022-12-29T08:50:38;11.10;99.90
32536;DHT22;18974;50.838;4.636;2022-12-29T08:53:03;11.20;99.90
32536;DHT22;18974;50.838;4.636;2022-12-29T08:55:29;11.20;99.90
32536;DHT22;18974;50.838;4.636;2022-12-29T08:57:55;11.10;99.90
32536;DHT22;18974;50.838;4.636;2022-12-29T09:00:20;11.10;99.90
32536;DHT22;18974;50.838;4.636;2022-12-29T09:02:46;11.00;99.90
32536;DHT22;18974;50.838;4.636;2022-12-29T09:05:12;11.00;99.90
32536;DHT22;18974;50.838;4.636;2022-12-29T09:07:38;11.10;99.90
32536;DHT22;18974;50.838;4.636;2022-12-29T09:10:04;11.10;99.90
32536;DHT22;18974;50.838;4.636;2022-12-29T09:12:30;11.10;99.90
32536;DHT22;18974;50.838;4.636;2022-12-29T09:14:55;11.00;99.90
32536;DHT22;18974;50.838;4.636;2022-12-29T09:17:21;11.00;99.90
32536;DHT22;18974;50.838;4.636;2022-12-29T09:20:05;11.10;99.90
32536;DHT22;18974;50.838;4.636;2022-12-29T09:22:31;11.10;99.90
32536;DHT22;18974;50.838;4.636;2022-12-29T09:24:57;11.00;99.90
32536;DHT22;18974;50.838;4.636;2022-12-29T09:27:22;11.00;99.90
32536;DHT22;18974;50.838;4.636;2022-12-29T09:29:48;11.10;99.90
32536;DHT22;18974;50.838;4.636;2022-12-29T09:32:14;11.20;99.90
32536;DHT22;18974;50.838;4.636;2022-12-29T09:34:42;11.20;99.90
32536;DHT22;18974;50.838;4.636;2022-12-29T09:37:07;11.20;99.90
32536;DHT22;18974;50.838;4.636;2022-12-29T09:39:33;11.10;99.90
32536;DHT22;18974;50.838;4.636;2022-12-29T09:42:06;11.20;99.90
32536;DHT22;18974;50.838;4.636;2022-12-29T09:44:56;11.20;99.90
32536;DHT22;18974;50.838;4.636;2022-12-29T09:47:25;11.30;99.90
32536;DHT22;18974;50.838;4.636;2022-12-29T09:50:13;11.20;99.90
32536;DHT22;18974;50.838;4.636;2022-12-29T09:55:40;11.20;99.90
32536;DHT22;18974;50.838;4.636;2022-12-29T09:58:12;11.20;99.90
32536;DHT22;18974;50.838;4.636;2022-12-29T10:03:52;11.40;99.90
32536;DHT22;18974;50.838;4.636;2022-12-29T10:06:32;11.30;99.90
32536;DHT22;18974;50.838;4.636;2022-12-29T10:23:32;11.20;99.90
32536;DHT22;18974;50.838;4.636;2022-12-29T10:26:01;11.30;99.90
32536;DHT22;18974;50.838;4.636;2022-12-29T10:28:47;11.30;99.90
32536;DHT22;18974;50.838;4.636;2022-12-29T10:31:16;11.40;99.90
32536;DHT22;18974;50.838;4.636;2022-12-29T10:33:46;11.40;99.90
32536;DHT22;18974;50.838;4.636;2022-12-29T10:36:22;11.40;99.90
32536;DHT22;18974;50.838;4.636;2022-12-29T10:39:20;11.50;99.90
32536;DHT22;18974;50.838;4.636;2022-12-29T10:44:17;11.50;99.90
32536;DHT22;18974;50.838;4.636;2022-12-29T10:46:52;11.50;99.90
32536;DHT22;18974;50.838;4.636;2022-12-29T10:49:19;11.60;99.90
32536;DHT22;18974;50.838;4.636;2022-12-29T10:51:46;11.70;99.90
32536;DHT22;18974;50.838;4.636;2022-12-29T10:54:18;11.70;99.90
32536;DHT22;18974;50.838;4.636;2022-12-29T10:57:08;11.60;99.90
32536;DHT22;18974;50.838;4.636;2022-12-29T10:59:36;11.70;99.90
32536;DHT22;18974;50.838;4.636;2022-12-29T11:07:07;11.50;99.90
32536;DHT22;18974;50.838;4.636;2022-12-29T11:09:35;11.40;99.90
32536;DHT22;18974;50.838;4.636;2022-12-29T11:12:23;11.50;99.90
32536;DHT22;18974;50.838;4.636;2022-12-29T11:22:58;11.80;99.90
32536;DHT22;18974;50.838;4.636;2022-12-29T11:25:24;12.00;99.90
32536;DHT22;18974;50.838;4.636;2022-12-29T11:28:14;12.00;99.90
32536;DHT22;18974;50.838;4.636;2022-12-29T11:30:40;11.90;99.90
32536;DHT22;18974;50.838;4.636;2022-12-29T11:33:08;11.90;99.90
32536;DHT22;18974;50.838;4.636;2022-12-29T11:35:42;12.00;99.90
32536;DHT22;18974;50.838;4.636;2022-12-29T11:38:39;12.00;99.90
32536;DHT22;18974;50.838;4.636;2022-12-29T11:41:06;12.00;99.90
32536;DHT22;18974;50.838;4.636;2022-12-29T11:43:41;12.00;99.90
32536;DHT22;18974;50.838;4.636;2022-12-29T11:46:16;11.90;99.90
32536;DHT22;18974;50.838;4.636;2022-12-29T11:48:43;11.80;99.90
32536;DHT22;18974;50.838;4.636;2022-12-29T11:51:11;11.80;99.90
32536;DHT22;18974;50.838;4.636;2022-12-29T11:56:06;11.90;99.90
32536;DHT22;18974;50.838;4.636;2022-12-29T11:58:36;11.90;99.90
32536;DHT22;18974;50.838;4.636;2022-12-29T12:01:23;11.90;99.90
32536;DHT22;18974;50.838;4.636;2022-12-29T12:04:01;11.90;99.90
32536;DHT22;18974;50.838;4.636;2022-12-29T12:06:29;11.80;99.90
32536;DHT22;18974;50.838;4.636;2022-12-29T12:09:02;11.60;99.90
32536;DHT22;18974;50.838;4.636;2022-12-29T12:11:34;11.40;99.90
32536;DHT22;18974;50.838;4.636;2022-12-29T12:14:34;11.40;99.90
32536;DHT22;18974;50.838;4.636;2022-12-29T12:17:11;11.50;99.90
32536;DHT22;18974;50.838;4.636;2022-12-29T12:22:52;11.40;99.90
32536;DHT22;18974;50.838;4.636;2022-12-29T12:25:21;11.40;99.90
32536;DHT22;18974;50.838;4.636;2022-12-29T12:27:51;11.30;99.90
32536;DHT22;18974;50.838;4.636;2022-12-29T12:30:20;11.30;99.90
32536;DHT22;18974;50.838;4.636;2022-12-29T12:32:56;11.30;99.90
32536;DHT22;18974;50.838;4.636;2022-12-29T12:51:50;11.10;99.90
32536;DHT22;18974;50.838;4.636;2022-12-29T13:00:17;11.50;99.90
32536;DHT22;18974;50.838;4.636;2022-12-29T13:03:03;11.60;99.90
32536;DHT22;18974;50.838;4.636;2022-12-29T13:19:03;11.60;99.90
32536;DHT22;18974;50.838;4.636;2022-12-29T13:21:34;11.80;99.90
32536;DHT22;18974;50.838;4.636;2022-12-29T13:27:01;11.60;99.90
32536;DHT22;18974;50.838;4.636;2022-12-29T13:29:46;11.70;99.90
32536;DHT22;18974;50.838;4.636;2022-12-29T13:37:53;11.10;99.90
32536;DHT22;18974;50.838;4.636;2022-12-29T13:40:23;10.80;99.90
32536;DHT22;18974;50.838;4.636;2022-12-29T13:42:50;10.70;99.90
32536;DHT22;18974;50.838;4.636;2022-12-29T13:45:21;10.50;99.90
32536;DHT22;18974;50.838;4.636;2022-12-29T13:50:28;10.70;99.90
32536;DHT22;18974;50.838;4.636;2022-12-29T13:58:24;11.00;99.90
32536;DHT22;18974;50.838;4.636;2022-12-29T14:03:49;11.00;99.90
32536;DHT22;18974;50.838;4.636;2022-12-29T14:06:31;10.90;99.90
32536;DHT22;18974;50.838;4.636;2022-12-29T14:09:05;10.80;99.90
32536;DHT22;18974;50.838;4.636;2022-12-29T14:11:34;10.90;99.90
32536;DHT22;18974;50.838;4.636;2022-12-29T14:14:12;10.80;99.90
32536;DHT22;18974;50.838;4.636;2022-12-29T14:16:38;10.80;99.90
32536;DHT22;18974;50.838;4.636;2022-12-29T14:19:11;10.70;99.90
32536;DHT22;18974;50.838;4.636;2022-12-29T14:21:38;10.70;99.90
32536;DHT22;18974;50.838;4.636;2022-12-29T14:24:44;10.60;99.90
32536;DHT22;18974;50.838;4.636;2022-12-29T14:34:55;10.90;99.90
32536;DHT22;18974;50.838;4.636;2022-12-29T14:37:27;10.80;99.90
32536;DHT22;18974;50.838;4.636;2022-12-29T14:40:28;10.80;99.90
32536;DHT22;18974;50.838;4.636;2022-12-29T14:42:55;10.90;99.90
32536;DHT22;18974;50.838;4.636;2022-12-29T14:45:31;10.90;99.90
32536;DHT22;18974;50.838;4.636;2022-12-29T14:50:49;11.00;99.90
32536;DHT22;18974;50.838;4.636;2022-12-29T14:53:53;11.00;99.90
32536;DHT22;18974;50.838;4.636;2022-12-29T14:56:23;11.00;99.90
32536;DHT22;18974;50.838;4.636;2022-12-29T14:58:53;10.80;99.90
32536;DHT22;18974;50.838;4.636;2022-12-29T15:01:39;10.80;99.90
32536;DHT22;18974;50.838;4.636;2022-12-29T15:04:34;10.80;99.90
32536;DHT22;18974;50.838;4.636;2022-12-29T15:07:01;10.80;99.90
32536;DHT22;18974;50.838;4.636;2022-12-29T15:09:46;10.80;99.90
32536;DHT22;18974;50.838;4.636;2022-12-29T15:14:56;10.50;99.90
32536;DHT22;18974;50.838;4.636;2022-12-29T15:17:33;10.50;99.90
32536;DHT22;18974;50.838;4.636;2022-12-29T15:20:25;10.50;99.90
32536;DHT22;18974;50.838;4.636;2022-12-29T15:23:01;10.50;99.90
32536;DHT22;18974;50.838;4.636;2022-12-29T15:25:27;10.60;99.90
32536;DHT22;18974;50.838;4.636;2022-12-29T15:28:02;10.70;99.90
32536;DHT22;18974;50.838;4.636;2022-12-29T15:30:29;10.50;99.90
32536;DHT22;18974;50.838;4.636;2022-12-29T15:32:54;10.50;99.90
32536;DHT22;18974;50.838;4.636;2022-12-29T15:35:33;9.90;99.90
32536;DHT22;18974;50.838;4.636;2022-12-29T15:38:00;9.40;99.90
32536;DHT22;18974;50.838;4.636;2022-12-29T15:40:32;9.10;99.90
32536;DHT22;18974;50.838;4.636;2022-12-29T15:45:39;8.90;99.90
32536;DHT22;18974;50.838;4.636;2022-12-29T15:48:05;8.90;99.90
32536;DHT22;18974;50.838;4.636;2022-12-29T15:50:36;8.80;99.90
32536;DHT22;18974;50.838;4.636;2022-12-29T15:53:03;8.70;99.90
32536;DHT22;18974;50.838;4.636;2022-12-29T15:55:37;8.70;99.90
32536;DHT22;18974;50.838;4.636;2022-12-29T15:58:15;8.80;99.90
32536;DHT22;18974;50.838;4.636;2022-12-29T16:00:47;8.70;99.90
32536;DHT22;18974;50.838;4.636;2022-12-29T16:03:13;8.70;99.90
32536;DHT22;18974;50.838;4.636;2022-12-29T16:05:40;8.70;99.90
32536;DHT22;18974;50.838;4.636;2022-12-29T16:08:34;8.60;99.90
32536;DHT22;18974;50.838;4.636;2022-12-29T16:11:08;8.60;99.90
32536;DHT22;18974;50.838;4.636;2022-12-29T16:13:41;8.60;99.90
32536;DHT22;18974;50.838;4.636;2022-12-29T16:16:18;8.50;99.90
32536;DHT22;18974;50.838;4.636;2022-12-29T16:18:44;8.40;99.90
32536;DHT22;18974;50.838;4.636;2022-12-29T16:21:18;8.40;99.90
32536;DHT22;18974;50.838;4.636;2022-12-29T16:23:50;8.30;99.90
32536;DHT22;18974;50.838;4.636;2022-12-29T16:26:18;8.40;99.90
32536;DHT22;18974;50.838;4.636;2022-12-29T16:28:48;8.30;99.90
32536;DHT22;18974;50.838;4.636;2022-12-29T16:33:52;8.40;99.90
32536;DHT22;18974;50.838;4.636;2022-12-29T16:36:27;8.30;99.90
32536;DHT22;18974;50.838;4.636;2022-12-29T16:41:37;8.20;99.90
32536;DHT22;18974;50.838;4.636;2022-12-29T16:44:20;8.30;99.90
32536;DHT22;18974;50.838;4.636;2022-12-29T16:47:00;8.30;99.90
32536;DHT22;18974;50.838;4.636;2022-12-29T16:49:26;8.30;99.90
32536;DHT22;18974;50.838;4.636;2022-12-29T16:51:53;8.30;99.90
32536;DHT22;18974;50.838;4.636;2022-12-29T16:54:26;8.30;99.90
32536;DHT22;18974;50.838;4.636;2022-12-29T16:56:54;8.50;99.90
32536;DHT22;18974;50.838;4.636;2022-12-29T16:59:30;8.50;99.90
32536;DHT22;18974;50.838;4.636;2022-12-29T17:01:57;8.50;99.90
32536;DHT22;18974;50.838;4.636;2022-12-29T17:04:24;8.50;99.90
32536;DHT22;18974;50.838;4.636;2022-12-29T17:06:50;8.50;99.90
32536;DHT22;18974;50.838;4.636;2022-12-29T17:09:22;8.60;99.90
32536;DHT22;18974;50.838;4.636;2022-12-29T17:11:56;8.60;99.90
32536;DHT22;18974;50.838;4.636;2022-12-29T17:14:34;8.60;99.90
32536;DHT22;18974;50.838;4.636;2022-12-29T17:17:00;8.60;99.90
32536;DHT22;18974;50.838;4.636;2022-12-29T17:19:32;8.50;99.90
32536;DHT22;18974;50.838;4.636;2022-12-29T17:21:58;8.50;99.90
32536;DHT22;18974;50.838;4.636;2022-12-29T17:24:24;8.50;99.90
32536;DHT22;18974;50.838;4.636;2022-12-29T17:26:53;8.60;99.90
32536;DHT22;18974;50.838;4.636;2022-12-29T17:29:32;8.40;99.90
32536;DHT22;18974;50.838;4.636;2022-12-29T17:32:00;8.40;99.90
32536;DHT22;18974;50.838;4.636;2022-12-29T17:34:26;8.40;99.90
32536;DHT22;18974;50.838;4.636;2022-12-29T17:36:51;8.50;99.90
32536;DHT22;18974;50.838;4.636;2022-12-29T17:39:17;8.50;99.90
32536;DHT22;18974;50.838;4.636;2022-12-29T17:41:44;8.50;99.90
32536;DHT22;18974;50.838;4.636;2022-12-29T17:44:15;8.40;99.90
32536;DHT22;18974;50.838;4.636;2022-12-29T17:46:42;8.50;99.90
32536;DHT22;18974;50.838;4.636;2022-12-29T17:49:13;8.50;99.90
32536;DHT22;18974;50.838;4.636;2022-12-29T17:51:39;8.60;99.90
32536;DHT22;18974;50.838;4.636;2022-12-29T17:54:07;8.60;99.90
32536;DHT22;18974;50.838;4.636;2022-12-29T17:56:33;8.60;99.90
32536;DHT22;18974;50.838;4.636;2022-12-29T17:58:59;8.50;99.90
32536;DHT22;18974;50.838;4.636;2022-12-29T18:01:25;8.60;99.90
32536;DHT22;18974;50.838;4.636;2022-12-29T18:03:51;8.50;99.90
32536;DHT22;18974;50.838;4.636;2022-12-29T18:06:16;8.60;99.90
32536;DHT22;18974;50.838;4.636;2022-12-29T18:08:42;8.50;99.90
32536;DHT22;18974;50.838;4.636;2022-12-29T18:11:21;8.60;99.90
32536;DHT22;18974;50.838;4.636;2022-12-29T18:13:47;8.70;99.90
32536;DHT22;18974;50.838;4.636;2022-12-29T18:16:13;8.70;99.90
32536;DHT22;18974;50.838;4.636;2022-12-29T18:18:39;8.60;99.90
32536;DHT22;18974;50.838;4.636;2022-12-29T18:21:05;8.60;99.90
32536;DHT22;18974;50.838;4.636;2022-12-29T18:23:32;8.60;99.90